Time;durP1;ratioP1;P1;durP2;ratioP2;P2;SDS_P1;SDS_P2;PMS_P1;PMS_P2;Temp;Humidity;BMP_temperature;BMP_pressure;BME280_temperature;BME280_humidity;BME280_pressure;Samples;Min_cycle;Max_cycle;Signal;HPM_P1;HPM_P2
2023/04/30 00:00:14;;;;;;;9.60;2.65;;;6.60;99.90;;;;;;5007133;28;20056;-72
2023/04/30 00:02:40;;;;;;;10.02;2.53;;;6.60;99.90;;;;;;5006853;28;20066;-72
2023/04/30 00:05:06;;;;;;;8.25;3.15;;;6.50;99.90;;;;;;5006617;28;21402;-71
2023/04/30 00:07:32;;;;;;;9.43;2.28;;;6.50;99.90;;;;;;5006215;28;20049;-72
2023/04/30 00:09:58;;;;;;;10.32;3.08;;;6.50;99.90;;;;;;5006980;28;20403;-73
2023/04/30 00:12:24;;;;;;;8.93;2.55;;;6.40;99.90;;;;;;4985893;28;20133;-80
2023/04/30 00:14:50;;;;;;;6.45;2.40;;;6.40;99.90;;;;;;5007182;28;20046;-81
2023/04/30 00:17:18;;;;;;;7.03;2.47;;;6.40;99.90;;;;;;5012515;28;20038;-79
2023/04/30 00:19:44;;;;;;;7.13;2.72;;;6.30;99.90;;;;;;4990528;28;20123;-80
2023/04/30 00:22:10;;;;;;;12.30;3.00;;;6.30;99.90;;;;;;5001581;28;20080;-80
2023/04/30 00:24:36;;;;;;;7.45;2.55;;;6.30;99.90;;;;;;5006656;28;20046;-80
2023/04/30 00:27:01;;;;;;;12.90;2.58;;;6.30;99.90;;;;;;5006224;28;20403;-80
2023/04/30 00:29:27;;;;;;;8.55;2.40;;;6.30;99.90;;;;;;5005589;28;20046;-80
2023/04/30 00:31:53;;;;;;;7.63;2.78;;;6.60;99.90;;;;;;4990673;28;20053;-80
2023/04/30 00:34:18;;;;;;;9.07;2.53;;;6.20;99.90;;;;;;5007312;28;20042;-80
2023/04/30 00:36:44;;;;;;;5.75;2.17;;;6.20;99.90;;;;;;5005663;28;20391;-79
2023/04/30 00:39:10;;;;;;;12.02;3.45;;;6.20;99.90;;;;;;5002870;28;20073;-79
2023/04/30 00:41:36;;;;;;;10.20;2.85;;;6.10;99.90;;;;;;5006374;28;20050;-81
2023/04/30 00:44:01;;;;;;;8.07;2.65;;;6.10;99.90;;;;;;5007069;28;20038;-79
2023/04/30 00:46:27;;;;;;;6.43;2.80;;;6.00;99.90;;;;;;5003250;28;20048;-79
2023/04/30 00:48:53;;;;;;;8.43;2.47;;;6.00;99.90;;;;;;5002763;28;20038;-81
2023/04/30 00:51:19;;;;;;;8.13;2.78;;;6.00;99.90;;;;;;4986579;28;20570;-80
2023/04/30 00:53:48;;;;;;;7.53;2.75;;;6.00;99.90;;;;;;5019704;28;20133;-80
2023/04/30 00:56:17;;;;;;;12.43;3.05;;;6.60;99.90;;;;;;5006087;28;20061;-80
2023/04/30 00:58:44;;;;;;;7.18;2.78;;;5.90;99.90;;;;;;5005498;28;20053;-81
2023/04/30 01:01:10;;;;;;;9.00;2.75;;;6.10;99.90;;;;;;4989921;28;20045;-80
2023/04/30 01:03:37;;;;;;;7.43;2.33;;;5.90;99.90;;;;;;5004545;28;20407;-80
2023/04/30 01:06:03;;;;;;;7.10;2.72;;;5.90;99.90;;;;;;5004325;28;20176;-80
2023/04/30 01:08:32;;;;;;;6.47;2.63;;;5.80;99.90;;;;;;5004474;28;20609;-81
2023/04/30 01:11:07;;;;;;;9.25;2.60;;;5.80;99.90;;;;;;4988195;28;20069;-81
2023/04/30 01:13:39;;;;;;;7.45;2.72;;;5.80;99.90;;;;;;5005835;28;20430;-80
2023/04/30 01:16:14;;;;;;;7.47;2.75;;;5.70;99.90;;;;;;5005588;28;20571;-80
2023/04/30 01:18:47;;;;;;;9.40;3.28;;;5.70;99.90;;;;;;4987029;28;20147;-80
2023/04/30 01:21:17;;;;;;;13.57;4.78;;;5.70;99.90;;;;;;5002242;28;20442;-80
2023/04/30 01:24:15;;;;;;;9.10;3.15;;;6.30;99.90;;;;;;4984220;28;20065;-81
2023/04/30 01:26:50;;;;;;;10.85;3.20;;;5.60;99.90;;;;;;5001438;28;20041;-80
2023/04/30 01:29:18;;;;;;;9.38;2.85;;;5.60;99.90;;;;;;5002408;28;20061;-81
2023/04/30 01:31:44;;;;;;;11.07;2.70;;;6.20;99.90;;;;;;5005126;28;20048;-80
2023/04/30 01:34:10;;;;;;;9.25;2.65;;;5.60;99.90;;;;;;5005998;28;20046;-80
2023/04/30 01:36:53;;;;;;;12.00;3.50;;;5.80;99.90;;;;;;5005828;28;20153;-80
2023/04/30 01:39:33;;;;;;;8.68;2.83;;;5.50;99.90;;;;;;5006014;28;20038;-80
2023/04/30 01:42:12;;;;;;;8.77;3.03;;;5.50;99.90;;;;;;5005640;28;20177;-79
2023/04/30 01:45:13;;;;;;;7.70;2.88;;;5.50;99.90;;;;;;5005527;28;20093;-79
2023/04/30 01:47:47;;;;;;;10.80;3.40;;;5.50;99.90;;;;;;4997902;28;20038;-79
2023/04/30 01:50:41;;;;;;;8.43;2.80;;;5.50;99.90;;;;;;5011216;28;20556;-80
2023/04/30 01:53:16;;;;;;;7.68;3.30;;;5.50;99.90;;;;;;5011903;28;20057;-79
2023/04/30 01:55:58;;;;;;;9.52;3.20;;;5.50;99.90;;;;;;4993444;28;20050;-79
2023/04/30 01:58:26;;;;;;;6.70;2.92;;;5.50;99.90;;;;;;5003991;28;20052;-79
2023/04/30 02:00:52;;;;;;;7.38;2.80;;;5.50;99.90;;;;;;5004518;28;20472;-79
2023/04/30 02:03:18;;;;;;;10.27;2.97;;;6.30;99.90;;;;;;5003925;28;20119;-78
2023/04/30 02:05:44;;;;;;;8.25;3.28;;;5.50;99.90;;;;;;5004472;28;20058;-79
2023/04/30 02:08:09;;;;;;;5.68;2.63;;;5.50;99.90;;;;;;5005872;28;20109;-78
2023/04/30 02:10:35;;;;;;;7.72;2.95;;;5.60;99.90;;;;;;5005083;28;20556;-78
2023/04/30 02:13:00;;;;;;;9.23;3.47;;;5.50;99.90;;;;;;5004460;28;20722;-78
2023/04/30 02:15:26;;;;;;;8.73;3.08;;;5.50;99.90;;;;;;5004029;28;20042;-77
2023/04/30 02:17:52;;;;;;;11.20;3.08;;;5.70;99.90;;;;;;5003331;28;20115;-79
2023/04/30 02:20:18;;;;;;;8.27;2.70;;;5.50;99.90;;;;;;5004276;28;20038;-79
2023/04/30 02:22:43;;;;;;;8.35;3.20;;;5.50;99.90;;;;;;4985866;28;20065;-79
2023/04/30 02:25:11;;;;;;;8.93;3.20;;;5.50;99.90;;;;;;5002862;28;20769;-79
2023/04/30 02:27:37;;;;;;;9.40;3.00;;;5.60;99.90;;;;;;5001235;28;20050;-79
2023/04/30 02:30:03;;;;;;;6.15;2.95;;;5.60;99.90;;;;;;5003991;28;20053;-79
2023/04/30 02:32:29;;;;;;;11.73;3.28;;;5.60;99.90;;;;;;5003909;28;20100;-79
2023/04/30 02:34:55;;;;;;;7.68;2.70;;;5.60;99.90;;;;;;4987000;28;20058;-78
2023/04/30 02:37:21;;;;;;;9.73;3.42;;;5.60;99.90;;;;;;4998540;28;20089;-78
2023/04/30 02:39:47;;;;;;;9.77;3.25;;;5.60;99.90;;;;;;5004221;28;20796;-78
2023/04/30 02:42:13;;;;;;;7.75;2.85;;;5.60;99.90;;;;;;4987463;28;20528;-78
2023/04/30 02:44:42;;;;;;;10.20;3.25;;;5.60;99.90;;;;;;5004133;28;20049;-78
2023/04/30 02:47:08;;;;;;;10.32;3.30;;;5.60;99.90;;;;;;5005204;28;20046;-76
2023/04/30 02:49:33;;;;;;;10.85;3.40;;;5.60;99.90;;;;;;5002317;28;20046;-76
2023/04/30 02:51:59;;;;;;;12.95;3.65;;;5.60;99.90;;;;;;5004476;28;20056;-78
2023/04/30 02:54:25;;;;;;;10.90;3.80;;;5.80;99.90;;;;;;5002039;28;20594;-78
2023/04/30 02:56:51;;;;;;;16.13;3.85;;;5.70;99.90;;;;;;5002728;28;20228;-78
2023/04/30 02:59:16;;;;;;;9.60;3.15;;;5.60;99.90;;;;;;5004419;28;20041;-79
2023/04/30 03:01:42;;;;;;;8.63;3.03;;;5.60;99.90;;;;;;5003628;28;20850;-79
2023/04/30 03:04:08;;;;;;;7.93;3.25;;;5.70;99.90;;;;;;5003248;28;20068;-77
2023/04/30 03:06:33;;;;;;;9.82;2.88;;;6.30;99.90;;;;;;5004628;28;20095;-77
2023/04/30 03:09:00;;;;;;;7.60;3.17;;;5.80;99.90;;;;;;5004285;28;20065;-79
2023/04/30 03:11:26;;;;;;;8.80;3.15;;;6.00;99.90;;;;;;5004336;28;20495;-78
2023/04/30 03:13:52;;;;;;;9.43;3.35;;;5.80;99.90;;;;;;5004067;28;20065;-78
2023/04/30 03:16:19;;;;;;;6.63;2.55;;;5.70;99.90;;;;;;5005583;28;20053;-78
2023/04/30 03:18:46;;;;;;;8.10;3.03;;;5.70;99.90;;;;;;5005441;28;20050;-78
2023/04/30 03:21:12;;;;;;;8.02;2.95;;;5.70;99.90;;;;;;5002840;28;20041;-77
2023/04/30 03:23:37;;;;;;;9.80;3.00;;;5.70;99.90;;;;;;5004880;28;20035;-77
2023/04/30 03:26:03;;;;;;;9.38;2.85;;;5.80;99.90;;;;;;5005292;28;20702;-79
2023/04/30 03:28:29;;;;;;;9.20;3.20;;;5.70;99.90;;;;;;5005824;28;20132;-80
2023/04/30 03:30:55;;;;;;;9.32;3.17;;;5.70;99.90;;;;;;5007633;28;20057;-77
2023/04/30 03:33:20;;;;;;;9.70;3.22;;;5.70;99.90;;;;;;5000252;28;20042;-78
2023/04/30 03:35:46;;;;;;;11.02;3.13;;;5.80;99.90;;;;;;5007997;28;20068;-79
2023/04/30 03:38:12;;;;;;;9.93;3.13;;;5.90;99.90;;;;;;4992212;28;20879;-78
2023/04/30 03:40:38;;;;;;;9.30;3.17;;;5.80;99.90;;;;;;5007394;28;20045;-77
2023/04/30 03:43:04;;;;;;;8.68;2.75;;;6.10;99.90;;;;;;5009380;28;20499;-78
2023/04/30 03:45:30;;;;;;;6.55;2.58;;;5.70;99.90;;;;;;5007540;28;20046;-78
2023/04/30 03:47:55;;;;;;;7.82;3.03;;;5.70;99.90;;;;;;4990609;28;20049;-78
2023/04/30 03:50:21;;;;;;;7.05;2.80;;;5.90;99.90;;;;;;5007450;28;20372;-79
2023/04/30 03:52:47;;;;;;;8.75;3.55;;;5.80;99.90;;;;;;5004873;28;20050;-80
2023/04/30 03:55:12;;;;;;;6.15;2.75;;;5.80;99.90;;;;;;5007545;28;20418;-76
2023/04/30 03:57:42;;;;;;;6.30;2.85;;;5.80;99.90;;;;;;5007036;28;20750;-79
2023/04/30 04:00:10;;;;;;;9.40;3.60;;;6.00;99.90;;;;;;5006610;28;20506;-78
2023/04/30 04:02:36;;;;;;;12.10;3.30;;;5.70;99.90;;;;;;5006967;28;20057;-78
2023/04/30 04:05:03;;;;;;;12.35;3.10;;;5.70;99.90;;;;;;5007417;28;20173;-79
2023/04/30 04:07:29;;;;;;;7.85;3.65;;;5.70;99.90;;;;;;5000110;28;20049;-77
2023/04/30 04:09:54;;;;;;;10.35;2.88;;;5.70;99.90;;;;;;4990034;28;20505;-78
2023/04/30 04:12:21;;;;;;;10.30;3.13;;;5.70;99.90;;;;;;4990547;28;20038;-78
2023/04/30 04:14:47;;;;;;;10.75;3.47;;;5.70;99.90;;;;;;5021885;28;20058;-80
2023/04/30 04:17:13;;;;;;;8.48;3.25;;;5.70;99.90;;;;;;5007141;28;20042;-80
2023/04/30 04:19:41;;;;;;;6.30;3.35;;;5.60;99.90;;;;;;5006780;28;20069;-79
2023/04/30 04:22:07;;;;;;;9.18;3.15;;;5.60;99.90;;;;;;5005299;28;20040;-78
2023/04/30 04:24:34;;;;;;;9.20;2.97;;;5.60;99.90;;;;;;4990283;28;20462;-79
2023/04/30 04:27:01;;;;;;;6.68;3.50;;;5.60;99.90;;;;;;5006179;28;20045;-79
2023/04/30 04:29:27;;;;;;;7.70;3.03;;;5.60;99.90;;;;;;5003557;28;20148;-77
2023/04/30 04:31:54;;;;;;;7.95;2.92;;;5.60;99.90;;;;;;4990184;28;20129;-79
2023/04/30 04:34:20;;;;;;;8.07;3.15;;;5.60;99.90;;;;;;5006300;28;20057;-78
2023/04/30 04:36:46;;;;;;;6.88;2.97;;;5.50;99.90;;;;;;4989611;28;20054;-79
2023/04/30 04:39:12;;;;;;;10.55;3.17;;;5.60;99.90;;;;;;5004716;28;20053;-78
2023/04/30 04:41:40;;;;;;;8.48;3.35;;;5.50;99.90;;;;;;5004300;28;20058;-78
2023/04/30 04:44:06;;;;;;;9.50;3.42;;;5.60;99.90;;;;;;5008022;28;20050;-79
2023/04/30 04:46:33;;;;;;;10.55;3.55;;;5.60;99.90;;;;;;5006539;28;20157;-78
2023/04/30 04:48:59;;;;;;;8.77;3.22;;;5.50;99.90;;;;;;5005374;28;20064;-79
2023/04/30 04:51:25;;;;;;;6.78;2.88;;;5.60;99.90;;;;;;5003294;28;20045;-76
2023/04/30 04:53:51;;;;;;;7.28;3.13;;;5.60;99.90;;;;;;5003505;28;20049;-79
2023/04/30 04:56:17;;;;;;;9.00;3.10;;;5.70;99.90;;;;;;5005920;28;20057;-79
2023/04/30 04:58:44;;;;;;;9.80;3.25;;;5.70;99.90;;;;;;5005963;28;20053;-79
2023/04/30 05:01:10;;;;;;;8.88;3.72;;;5.70;99.90;;;;;;5007485;28;20666;-78
2023/04/30 05:03:36;;;;;;;8.95;3.00;;;6.10;99.90;;;;;;4986664;28;20064;-77
2023/04/30 05:06:02;;;;;;;7.75;3.33;;;5.60;99.90;;;;;;5004786;28;20057;-79
2023/04/30 05:08:28;;;;;;;9.77;4.13;;;5.70;99.90;;;;;;5005656;28;20046;-80
2023/04/30 05:10:54;;;;;;;9.05;3.53;;;5.70;99.90;;;;;;5005032;28;20205;-79
2023/04/30 05:13:20;;;;;;;11.02;3.30;;;5.70;99.90;;;;;;5004402;28;20030;-77
2023/04/30 05:15:46;;;;;;;6.28;3.20;;;5.70;99.90;;;;;;5006617;28;20384;-77
2023/04/30 05:18:12;;;;;;;9.85;3.80;;;5.70;99.90;;;;;;5001719;28;20057;-77
2023/04/30 05:20:38;;;;;;;9.50;3.40;;;5.70;99.90;;;;;;5002965;28;20054;-78
2023/04/30 05:23:03;;;;;;;12.43;3.60;;;5.80;99.90;;;;;;4987778;28;20042;-77
2023/04/30 05:25:29;;;;;;;9.10;3.58;;;5.80;99.90;;;;;;5007090;28;20050;-79
2023/04/30 05:27:55;;;;;;;8.15;3.22;;;5.90;99.90;;;;;;5005038;28;20046;-77
2023/04/30 05:30:21;;;;;;;9.75;3.63;;;5.90;99.90;;;;;;5000924;28;20052;-79
2023/04/30 05:32:50;;;;;;;14.30;3.67;;;5.90;99.90;;;;;;5006058;28;20061;-81
2023/04/30 05:35:17;;;;;;;11.15;3.95;;;6.00;99.90;;;;;;5008154;28;20053;-81
2023/04/30 05:37:42;;;;;;;14.00;3.22;;;6.00;99.90;;;;;;5004968;28;20400;-79
2023/04/30 05:40:09;;;;;;;12.23;3.90;;;6.00;99.90;;;;;;5004392;28;20045;-79
2023/04/30 05:42:35;;;;;;;17.80;4.07;;;6.00;99.90;;;;;;5004062;28;20046;-78
2023/04/30 05:45:01;;;;;;;9.82;3.85;;;6.10;99.90;;;;;;5006312;28;20046;-79
2023/04/30 05:47:27;;;;;;;8.52;3.83;;;6.20;99.90;;;;;;5005114;28;20049;-78
2023/04/30 05:49:53;;;;;;;14.93;5.15;;;6.20;99.90;;;;;;5004753;28;20534;-79
2023/04/30 05:52:19;;;;;;;12.75;4.15;;;6.20;99.90;;;;;;5004673;28;20124;-76
2023/04/30 05:54:45;;;;;;;10.27;3.95;;;6.20;99.90;;;;;;4999310;28;20119;-78
2023/04/30 05:57:10;;;;;;;15.05;4.00;;;6.30;99.90;;;;;;5005239;28;20041;-79
2023/04/30 05:59:36;;;;;;;9.80;4.10;;;6.30;99.90;;;;;;4998470;28;20050;-78
2023/04/30 06:02:02;;;;;;;14.07;4.20;;;6.30;99.90;;;;;;5002956;28;20069;-79
2023/04/30 06:04:28;;;;;;;13.77;3.90;;;6.40;99.90;;;;;;5005357;28;20081;-79
2023/04/30 06:06:53;;;;;;;12.82;3.97;;;7.00;99.90;;;;;;5003834;28;20038;-78
2023/04/30 06:09:19;;;;;;;10.45;4.30;;;6.50;99.90;;;;;;5004811;28;20415;-79
2023/04/30 06:11:49;;;;;;;14.15;4.20;;;6.50;99.90;;;;;;5004393;28;20061;-78
2023/04/30 06:14:15;;;;;;;8.80;3.55;;;7.10;99.90;;;;;;5004707;28;20143;-78
2023/04/30 06:16:41;;;;;;;16.98;4.00;;;6.50;99.90;;;;;;5005584;28;20050;-78
2023/04/30 06:19:07;;;;;;;15.07;4.07;;;6.60;99.90;;;;;;5002026;28;20297;-78
2023/04/30 06:21:32;;;;;;;11.02;3.30;;;6.60;99.90;;;;;;5001131;28;20050;-79
2023/04/30 06:23:58;;;;;;;10.90;3.83;;;6.70;99.90;;;;;;5001780;28;20080;-78
2023/04/30 06:26:24;;;;;;;16.27;4.45;;;6.70;99.90;;;;;;5005536;28;20040;-79
2023/04/30 06:28:49;;;;;;;14.80;4.22;;;6.80;99.90;;;;;;4987985;28;20061;-79
2023/04/30 06:31:18;;;;;;;13.00;3.72;;;6.80;99.90;;;;;;5004546;28;20046;-79
2023/04/30 06:33:43;;;;;;;14.32;3.85;;;6.90;99.90;;;;;;5002407;28;20049;-79
2023/04/30 06:36:09;;;;;;;12.25;3.70;;;7.00;99.90;;;;;;4998629;28;20057;-77
2023/04/30 06:38:35;;;;;;;12.27;4.10;;;7.10;99.90;;;;;;5002398;28;20054;-79
2023/04/30 06:41:01;;;;;;;13.15;4.25;;;7.20;99.90;;;;;;5002455;28;20049;-79
2023/04/30 06:43:26;;;;;;;15.65;3.78;;;7.40;99.90;;;;;;5006932;28;20038;-79
2023/04/30 06:45:52;;;;;;;12.40;3.42;;;7.60;99.90;;;;;;4998198;28;20045;-80
2023/04/30 06:48:18;;;;;;;14.00;3.38;;;7.80;99.90;;;;;;5000301;28;20049;-78
2023/04/30 06:50:44;;;;;;;12.68;3.35;;;7.90;99.90;;;;;;4981179;28;20486;-78
2023/04/30 06:53:11;;;;;;;14.45;3.17;;;8.20;99.90;;;;;;5002497;28;20041;-80
2023/04/30 06:55:36;;;;;;;18.70;3.88;;;7.90;99.90;;;;;;5001171;28;20495;-80
2023/04/30 06:58:04;;;;;;;15.00;3.40;;;8.10;99.90;;;;;;5003747;28;20038;-81
2023/04/30 07:00:30;;;;;;;18.70;3.90;;;8.00;99.90;;;;;;5002883;28;20041;-79
2023/04/30 07:02:59;;;;;;;13.95;3.78;;;8.00;99.90;;;;;;4999786;28;20585;-80
2023/04/30 07:05:25;;;;;;;14.30;3.22;;;8.10;99.90;;;;;;5001076;28;20056;-81
2023/04/30 07:07:51;;;;;;;9.68;3.28;;;8.10;99.90;;;;;;4998659;28;20099;-80
2023/04/30 07:10:17;;;;;;;12.93;3.60;;;8.20;99.90;;;;;;5000049;28;20054;-79
2023/04/30 07:12:43;;;;;;;12.93;3.10;;;8.10;99.90;;;;;;4992812;28;20054;-79
2023/04/30 07:15:09;;;;;;;14.93;3.80;;;8.20;99.90;;;;;;4998065;28;20050;-79
2023/04/30 07:17:36;;;;;;;15.10;2.90;;;8.20;99.90;;;;;;4994798;28;20038;-81
2023/04/30 07:20:03;;;;;;;13.73;3.42;;;8.20;99.90;;;;;;4980568;28;20080;-79
2023/04/30 07:22:32;;;;;;;14.60;3.97;;;8.20;99.90;;;;;;4999320;28;20581;-80
2023/04/30 07:24:58;;;;;;;12.13;3.17;;;8.30;99.90;;;;;;4994752;28;20050;-79
2023/04/30 07:27:24;;;;;;;14.93;2.65;;;8.40;99.90;;;;;;4999092;28;20057;-80
2023/04/30 07:29:50;;;;;;;13.18;2.58;;;8.40;99.90;;;;;;4992873;28;20161;-80
2023/04/30 07:32:16;;;;;;;15.00;2.70;;;8.50;99.90;;;;;;4998254;28;20041;-82
2023/04/30 07:34:42;;;;;;;12.50;2.58;;;8.50;99.90;;;;;;4994610;28;20507;-81
2023/04/30 07:37:08;;;;;;;12.98;2.65;;;8.60;99.90;;;;;;4998732;28;20422;-81
2023/04/30 07:39:36;;;;;;;14.40;2.38;;;9.10;99.90;;;;;;4996575;28;20089;-81
2023/04/30 07:42:02;;;;;;;14.95;2.72;;;9.00;99.90;;;;;;4980360;28;20100;-81
2023/04/30 07:44:29;;;;;;;11.65;2.00;;;8.70;99.90;;;;;;4979224;28;20077;-80
2023/04/30 07:46:55;;;;;;;10.68;2.25;;;8.80;99.90;;;;;;4994782;28;20043;-81
2023/04/30 07:49:21;;;;;;;16.00;3.05;;;8.80;99.90;;;;;;4993198;28;20045;-81
2023/04/30 07:51:47;;;;;;;9.00;2.25;;;9.00;99.90;;;;;;4996543;28;20490;-81
2023/04/30 07:54:13;;;;;;;17.55;3.35;;;9.20;99.90;;;;;;4995637;28;20128;-80
2023/04/30 07:56:38;;;;;;;13.57;2.38;;;9.10;99.90;;;;;;4993668;28;20152;-81
2023/04/30 07:59:04;;;;;;;18.23;3.05;;;9.20;99.90;;;;;;4996141;28;20049;-81
2023/04/30 08:01:31;;;;;;;11.98;2.65;;;9.30;99.90;;;;;;4998653;28;20041;-82
2023/04/30 08:03:57;;;;;;;10.15;2.75;;;9.50;99.90;;;;;;4997451;28;20058;-82
2023/04/30 08:06:23;;;;;;;13.52;2.42;;;9.60;99.90;;;;;;5000487;28;20048;-81
2023/04/30 08:08:49;;;;;;;10.20;2.38;;;9.80;99.90;;;;;;4999712;28;20141;-81
2023/04/30 08:11:15;;;;;;;10.85;2.03;;;9.90;99.90;;;;;;4984661;28;20582;-82
2023/04/30 08:13:44;;;;;;;11.57;2.35;;;10.00;99.90;;;;;;4986346;28;20049;-80
2023/04/30 08:16:09;;;;;;;13.80;2.35;;;10.20;99.90;;;;;;4983082;28;20418;-79
2023/04/30 08:18:37;;;;;;;10.15;2.60;;;10.30;99.90;;;;;;4999897;28;20057;-77
2023/04/30 08:21:04;;;;;;;12.18;2.28;;;10.30;99.90;;;;;;4980098;28;20061;-79
2023/04/30 08:23:30;;;;;;;14.50;2.33;;;10.40;99.90;;;;;;5002477;28;20042;-80
2023/04/30 08:25:56;;;;;;;11.80;2.60;;;10.40;99.90;;;;;;4998035;28;20152;-80
2023/04/30 08:28:21;;;;;;;14.25;2.67;;;10.50;99.90;;;;;;5001191;28;20050;-79
2023/04/30 08:30:47;;;;;;;12.85;2.40;;;10.60;99.90;;;;;;4981971;28;20057;-79
2023/04/30 08:33:13;;;;;;;12.77;2.15;;;10.70;99.90;;;;;;4982680;28;20396;-81
2023/04/30 08:35:38;;;;;;;10.40;2.08;;;10.80;99.90;;;;;;4997373;28;20054;-79
2023/04/30 08:38:04;;;;;;;9.18;2.45;;;10.80;99.90;;;;;;4999286;28;20069;-81
2023/04/30 08:40:34;;;;;;;13.23;2.45;;;10.80;99.90;;;;;;4996748;28;20077;-81
2023/04/30 08:43:08;;;;;;;8.80;1.98;;;10.70;99.90;;;;;;5004933;28;20050;-80
2023/04/30 08:45:35;;;;;;;11.40;2.58;;;10.70;99.90;;;;;;5005289;28;20050;-80
2023/04/30 08:48:03;;;;;;;9.63;2.22;;;10.70;99.90;;;;;;4998643;28;20064;-81
2023/04/30 08:50:29;;;;;;;12.40;2.58;;;10.70;99.90;;;;;;4994632;28;20049;-80
2023/04/30 08:52:57;;;;;;;8.77;2.10;;;10.70;99.90;;;;;;5001490;28;20208;-78
2023/04/30 08:55:25;;;;;;;13.70;2.83;;;10.70;99.90;;;;;;4999173;28;20081;-78
2023/04/30 08:57:50;;;;;;;11.60;2.10;;;10.70;99.90;;;;;;4998573;28;20446;-79
2023/04/30 09:00:16;;;;;;;11.23;3.40;;;10.70;99.90;;;;;;4983095;28;20044;-79
2023/04/30 09:02:43;;;;;;;16.63;2.78;;;10.60;99.90;;;;;;4983325;28;20046;-81
2023/04/30 09:05:13;;;;;;;9.45;2.75;;;10.60;99.90;;;;;;5005454;28;20503;-80
2023/04/30 09:07:43;;;;;;;12.80;2.22;;;10.60;99.90;;;;;;4998094;28;20054;-79
2023/04/30 09:10:17;;;;;;;15.10;3.13;;;10.60;99.90;;;;;;4989313;28;20077;-79
2023/04/30 09:12:44;;;;;;;12.80;2.33;;;10.60;99.90;;;;;;5005191;28;20093;-79
2023/04/30 09:15:13;;;;;;;13.32;2.50;;;10.70;99.90;;;;;;4987854;28;20041;-78
2023/04/30 09:17:39;;;;;;;8.68;2.35;;;10.80;99.90;;;;;;4988561;28;20423;-80
2023/04/30 09:20:12;;;;;;;13.02;2.70;;;10.80;99.90;;;;;;5000795;28;20049;-79
2023/04/30 09:22:40;;;;;;;10.68;2.85;;;10.80;99.90;;;;;;5018585;28;20038;-80
2023/04/30 09:25:07;;;;;;;17.02;3.25;;;10.90;99.90;;;;;;4988609;28;20765;-79
2023/04/30 09:27:33;;;;;;;10.07;2.60;;;11.00;99.90;;;;;;5003174;28;20403;-79
2023/04/30 09:30:00;;;;;;;11.15;2.83;;;11.00;99.90;;;;;;5007112;28;20107;-80
2023/04/30 09:32:25;;;;;;;14.48;3.15;;;11.00;99.90;;;;;;4989250;28;20042;-80
2023/04/30 09:34:51;;;;;;;10.52;3.00;;;11.10;99.90;;;;;;5006222;28;20052;-79
2023/04/30 09:37:17;;;;;;;12.50;2.40;;;11.20;99.90;;;;;;5005190;28;20794;-79
2023/04/30 09:39:51;;;;;;;13.00;2.78;;;11.20;99.90;;;;;;5006227;28;20069;-80
2023/04/30 09:42:20;;;;;;;10.43;2.63;;;11.30;99.90;;;;;;5007391;28;20533;-80
2023/04/30 09:44:46;;;;;;;11.00;2.95;;;11.30;99.90;;;;;;4989172;28;20046;-80
2023/04/30 09:47:18;;;;;;;11.43;2.40;;;11.40;99.90;;;;;;5006221;28;20053;-79
2023/04/30 09:49:50;;;;;;;9.82;2.90;;;11.40;99.90;;;;;;5006143;28;20092;-79
2023/04/30 09:52:17;;;;;;;6.68;2.33;;;11.50;99.90;;;;;;5006875;28;20053;-80
2023/04/30 09:54:44;;;;;;;10.38;2.40;;;11.50;99.90;;;;;;5004583;28;20640;-80
2023/04/30 09:57:12;;;;;;;7.28;2.50;;;11.50;99.90;;;;;;5006508;28;20180;-77
2023/04/30 09:59:44;;;;;;;14.90;2.85;;;11.50;99.90;;;;;;4996425;28;20038;-78
2023/04/30 10:02:13;;;;;;;8.70;2.47;;;11.40;99.90;;;;;;5004355;28;20049;-80
2023/04/30 10:04:43;;;;;;;10.98;2.40;;;11.50;99.90;;;;;;5006901;28;20061;-79
2023/04/30 10:07:19;;;;;;;10.70;2.28;;;11.50;99.90;;;;;;5006684;28;20044;-80
2023/04/30 10:10:07;;;;;;;9.07;2.53;;;11.60;99.90;;;;;;5006599;28;20418;-82
2023/04/30 10:12:43;;;;;;;11.15;3.25;;;11.60;99.90;;;;;;5006438;28;20458;-81
2023/04/30 10:15:25;;;;;;;11.43;2.80;;;11.60;99.90;;;;;;5002816;28;20037;-79
2023/04/30 10:18:03;;;;;;;10.23;3.08;;;11.70;99.90;;;;;;5013381;28;20105;-80
2023/04/30 10:20:32;;;;;;;8.45;2.22;;;11.80;99.90;;;;;;4999917;28;20038;-79
2023/04/30 10:22:59;;;;;;;11.18;2.90;;;11.90;99.90;;;;;;4987405;28;20061;-78
2023/04/30 10:25:26;;;;;;;11.05;2.97;;;12.00;99.90;;;;;;4981259;28;20073;-78
2023/04/30 10:27:52;;;;;;;11.88;2.45;;;12.00;99.90;;;;;;4992102;28;20050;-78
2023/04/30 10:30:21;;;;;;;11.27;2.83;;;12.00;99.90;;;;;;5005571;28;20605;-78
2023/04/30 10:33:32;;;;;;;9.85;2.70;;;12.10;99.90;;;;;;4999674;28;20041;-78
2023/04/30 10:36:05;;;;;;;11.07;3.08;;;12.10;99.90;;;;;;4995320;28;20144;-78
2023/04/30 10:38:32;;;;;;;10.75;2.90;;;12.20;99.90;;;;;;5006654;28;20056;-78
2023/04/30 10:41:00;;;;;;;9.73;2.95;;;12.30;99.90;;;;;;4989475;28;20096;-78
2023/04/30 10:43:28;;;;;;;10.65;2.58;;;12.30;99.90;;;;;;4991112;28;20058;-77
2023/04/30 10:45:58;;;;;;;10.65;3.08;;;12.40;99.90;;;;;;4997665;28;20664;-79
2023/04/30 10:48:24;;;;;;;8.25;2.65;;;12.50;99.90;;;;;;4998137;28;20066;-79
2023/04/30 10:50:53;;;;;;;10.40;2.72;;;12.60;99.90;;;;;;4997616;28;20041;-77
2023/04/30 10:53:21;;;;;;;10.63;2.80;;;12.70;99.90;;;;;;4993520;28;20494;-77
2023/04/30 10:56:05;;;;;;;8.32;3.05;;;12.70;99.90;;;;;;4997686;28;20068;-77
2023/04/30 10:58:33;;;;;;;7.00;2.67;;;12.80;99.90;;;;;;4992996;28;20045;-77
2023/04/30 11:01:13;;;;;;;8.55;2.90;;;12.90;99.90;;;;;;4999026;28;20050;-77
2023/04/30 11:03:41;;;;;;;13.68;2.90;;;13.00;99.90;;;;;;5000322;28;20097;-78
2023/04/30 11:06:12;;;;;;;10.50;3.10;;;13.10;99.90;;;;;;4997906;28;20993;-77
2023/04/30 11:08:41;;;;;;;12.38;2.75;;;13.20;99.90;;;;;;4996780;28;20037;-77
2023/04/30 11:11:08;;;;;;;6.72;2.17;;;13.20;99.90;;;;;;5002113;28;20141;-79
2023/04/30 11:13:45;;;;;;;8.15;2.63;;;13.20;99.90;;;;;;5000691;28;20046;-77
2023/04/30 11:16:16;;;;;;;7.68;2.63;;;13.40;99.90;;;;;;4979229;28;20042;-78
2023/04/30 11:18:46;;;;;;;9.13;3.20;;;13.30;99.90;;;;;;4997451;28;20050;-77
2023/04/30 11:21:12;;;;;;;9.07;3.40;;;13.30;99.90;;;;;;4997507;28;20056;-77
2023/04/30 11:23:42;;;;;;;7.88;2.50;;;13.30;99.90;;;;;;4997795;28;20107;-78
2023/04/30 11:26:09;;;;;;;8.38;2.85;;;13.40;99.90;;;;;;4998037;28;20034;-78
2023/04/30 11:28:36;;;;;;;7.85;2.10;;;13.40;99.90;;;;;;4992659;28;20049;-77
2023/04/30 11:31:03;;;;;;;6.78;2.30;;;13.40;99.90;;;;;;4999101;28;20438;-77
2023/04/30 11:33:31;;;;;;;8.70;2.40;;;13.40;99.90;;;;;;4994389;28;20038;-77
2023/04/30 11:35:58;;;;;;;8.35;2.10;;;13.50;99.90;;;;;;4981644;28;20089;-78
2023/04/30 11:38:29;;;;;;;8.05;2.13;;;13.60;99.90;;;;;;4999530;28;20503;-77
2023/04/30 11:40:57;;;;;;;9.75;2.55;;;13.60;99.90;;;;;;4999646;28;20046;-78
2023/04/30 11:43:33;;;;;;;7.93;2.78;;;13.70;99.90;;;;;;5000059;28;20056;-78
2023/04/30 11:46:10;;;;;;;8.25;2.10;;;13.70;99.90;;;;;;4999532;28;20448;-76
2023/04/30 11:48:38;;;;;;;8.15;2.22;;;13.80;99.90;;;;;;5003286;28;20540;-76
2023/04/30 11:51:05;;;;;;;7.13;2.22;;;13.80;99.90;;;;;;5000094;28;20048;-76
2023/04/30 11:53:31;;;;;;;7.38;2.33;;;13.90;99.90;;;;;;5001549;28;20046;-74
2023/04/30 11:56:01;;;;;;;11.40;2.35;;;13.90;99.90;;;;;;4999113;28;20050;-75
2023/04/30 11:58:31;;;;;;;8.10;2.40;;;13.90;99.90;;;;;;4999845;28;20045;-73
2023/04/30 12:00:59;;;;;;;6.65;2.17;;;14.00;99.90;;;;;;5000143;28;20042;-76
2023/04/30 12:03:26;;;;;;;7.95;2.10;;;14.10;99.90;;;;;;5000626;28;20392;-75
2023/04/30 12:05:51;;;;;;;7.05;2.47;;;14.10;99.90;;;;;;4997983;28;20129;-75
2023/04/30 12:08:18;;;;;;;8.15;1.90;;;14.10;99.90;;;;;;4998999;28;20115;-75
2023/04/30 12:10:44;;;;;;;9.27;1.80;;;14.20;99.90;;;;;;4999512;28;20153;-75
2023/04/30 12:13:13;;;;;;;6.40;1.77;;;14.20;99.90;;;;;;5001344;28;20113;-76
2023/04/30 12:15:38;;;;;;;4.82;1.77;;;14.30;99.90;;;;;;4999946;28;20057;-75
2023/04/30 12:18:14;;;;;;;6.28;1.70;;;14.30;99.90;;;;;;4985095;28;20037;-76
2023/04/30 12:20:41;;;;;;;7.43;2.08;;;14.30;99.90;;;;;;4986710;28;20133;-76
2023/04/30 12:23:07;;;;;;;6.88;1.77;;;14.40;99.90;;;;;;5002606;28;20041;-75
2023/04/30 12:25:41;;;;;;;7.00;1.90;;;14.40;99.90;;;;;;4982171;28;20045;-75
2023/04/30 12:28:07;;;;;;;6.00;1.55;;;14.50;99.90;;;;;;5001180;28;20531;-75
2023/04/30 12:30:33;;;;;;;8.10;2.08;;;14.50;99.90;;;;;;4982716;28;20140;-76
2023/04/30 12:32:59;;;;;;;8.40;2.22;;;14.50;99.90;;;;;;5001044;28;20073;-74
2023/04/30 12:35:28;;;;;;;6.72;1.80;;;14.60;99.90;;;;;;4996679;28;20157;-74
2023/04/30 12:38:05;;;;;;;8.27;1.98;;;14.60;99.90;;;;;;5000026;28;20139;-77
2023/04/30 12:40:32;;;;;;;5.70;2.25;;;14.70;99.90;;;;;;5000494;28;20046;-75
2023/04/30 12:43:03;;;;;;;6.72;1.80;;;14.80;99.90;;;;;;4998086;28;20056;-75
2023/04/30 12:45:45;;;;;;;;;;;14.80;99.90;;;;;;4997625;28;20045;-75
2023/04/30 12:48:12;;;;;;;5.22;1.55;;;14.90;99.90;;;;;;4999345;28;19925;-75
2023/04/30 12:50:40;;;;;;;5.30;1.50;;;14.90;99.90;;;;;;4971775;28;20136;-74